Time;durP1;ratioP1;P1;durP2;ratioP2;P2;SDS_P1;SDS_P2;PMS_P1;PMS_P2;Temp;Humidity;BMP_temperature;BMP_pressure;BME280_temperature;BME280_humidity;BME280_pressure;Samples;Min_cycle;Max_cycle;Signal;HPM_P1;HPM_P2
2023/03/24 00:02:06;;;;;;;9.00;3.70;;;13.40;85.70;;;;;;4999429;28;20044;-73
2023/03/24 00:04:33;;;;;;;8.60;4.80;;;13.40;85.70;;;;;;5025453;28;20013;-77
2023/03/24 00:07:03;;;;;;;9.60;4.30;;;13.40;85.80;;;;;;5023151;28;21050;-76
2023/03/24 00:09:30;;;;;;;8.70;4.43;;;13.40;85.90;;;;;;5028168;28;20025;-78
2023/03/24 00:11:56;;;;;;;7.40;4.43;;;13.40;86.00;;;;;;5025909;28;20041;-73
2023/03/24 00:14:23;;;;;;;10.35;4.55;;;13.40;86.10;;;;;;5020734;28;20069;-77
2023/03/24 00:16:51;;;;;;;10.32;4.60;;;13.40;86.10;;;;;;5020634;28;20029;-75
2023/03/24 00:19:18;;;;;;;9.85;4.63;;;13.40;86.10;;;;;;5026480;28;20109;-74
2023/03/24 00:21:44;;;;;;;11.10;4.60;;;13.40;86.10;;;;;;5027150;28;20021;-75
2023/03/24 00:24:11;;;;;;;8.40;4.40;;;13.40;86.00;;;;;;5024210;28;20187;-75
2023/03/24 00:26:39;;;;;;;8.45;4.78;;;13.40;86.10;;;;;;5028323;28;20432;-75
2023/03/24 00:29:08;;;;;;;8.35;4.93;;;13.40;86.10;;;;;;5007127;28;20098;-76
2023/03/24 00:31:38;;;;;;;8.70;4.63;;;13.40;86.10;;;;;;5022168;28;20091;-75
2023/03/24 00:34:07;;;;;;;10.30;4.55;;;13.40;86.10;;;;;;5021738;28;20119;-75
2023/03/24 00:36:34;;;;;;;10.18;4.70;;;13.40;86.10;;;;;;5023490;28;20033;-74
2023/03/24 00:39:00;;;;;;;9.73;4.40;;;13.40;86.10;;;;;;5006554;28;20544;-76
2023/03/24 00:41:27;;;;;;;8.43;4.60;;;13.40;86.30;;;;;;5027902;28;20087;-74
2023/03/24 00:43:55;;;;;;;7.53;3.90;;;13.40;86.40;;;;;;5038807;28;20813;-75
2023/03/24 00:46:27;;;;;;;9.88;4.47;;;13.50;86.50;;;;;;5017663;28;20049;-77
2023/03/24 00:49:02;;;;;;;9.15;4.75;;;13.40;86.80;;;;;;5023542;28;20090;-75
2023/03/24 00:51:36;;;;;;;11.55;4.63;;;13.40;87.10;;;;;;5029884;28;20039;-75
2023/03/24 00:54:03;;;;;;;10.60;4.57;;;13.30;87.40;;;;;;5014447;28;20029;-74
2023/03/24 00:56:31;;;;;;;8.40;4.88;;;13.30;87.80;;;;;;5028178;28;20115;-76
2023/03/24 00:58:57;;;;;;;9.32;4.93;;;13.30;88.30;;;;;;5028118;28;20024;-77
2023/03/24 01:01:26;;;;;;;8.75;4.18;;;13.20;88.70;;;;;;5023607;28;20034;-75
2023/03/24 01:03:52;;;;;;;7.75;3.42;;;13.10;88.70;;;;;;5023763;28;20052;-75
2023/03/24 01:06:21;;;;;;;10.43;3.72;;;13.10;88.60;;;;;;5027470;28;20151;-77
2023/03/24 01:08:48;;;;;;;6.75;3.05;;;13.00;88.70;;;;;;5025007;28;20025;-76
2023/03/24 01:11:15;;;;;;;7.20;2.80;;;12.90;88.70;;;;;;5025320;28;20037;-76
2023/03/24 01:13:41;;;;;;;6.35;2.60;;;12.80;88.40;;;;;;5022041;28;20048;-78
2023/03/24 01:16:07;;;;;;;3.90;1.70;;;12.70;88.10;;;;;;5030590;28;20044;-75
2023/03/24 01:18:39;;;;;;;3.40;1.70;;;12.60;87.10;;;;;;5023481;28;20029;-74
2023/03/24 01:21:07;;;;;;;3.00;1.30;;;12.40;85.90;;;;;;5037473;28;20065;-78
2023/03/24 01:23:33;;;;;;;4.43;1.88;;;12.40;85.60;;;;;;5024095;28;20037;-75
2023/03/24 01:26:03;;;;;;;4.60;1.60;;;12.20;85.80;;;;;;5023854;28;20056;-76
2023/03/24 01:28:29;;;;;;;3.63;1.40;;;12.10;83.90;;;;;;5030626;28;20068;-76
2023/03/24 01:30:55;;;;;;;3.17;1.30;;;12.00;83.80;;;;;;5026171;28;20034;-75
2023/03/24 01:33:21;;;;;;;4.35;1.88;;;12.00;84.10;;;;;;5030062;28;20461;-75
2023/03/24 01:35:47;;;;;;;5.32;1.45;;;12.00;84.00;;;;;;5023362;28;20032;-76
2023/03/24 01:38:13;;;;;;;3.92;1.60;;;11.90;84.40;;;;;;5026054;28;20440;-74
2023/03/24 01:40:42;;;;;;;4.28;1.60;;;11.90;84.90;;;;;;5022962;28;20029;-76
2023/03/24 01:43:20;;;;;;;3.92;1.55;;;11.80;85.00;;;;;;5027642;28;20083;-77
2023/03/24 01:46:12;;;;;;;6.88;1.92;;;11.80;84.60;;;;;;5010054;28;20025;-77
2023/03/24 01:49:03;;;;;;;4.38;1.67;;;11.70;84.20;;;;;;5024601;28;20032;-75
2023/03/24 01:51:36;;;;;;;6.75;1.90;;;11.60;84.40;;;;;;5018869;28;20034;-75
2023/03/24 01:54:17;;;;;;;6.60;2.35;;;11.50;84.50;;;;;;5020898;28;20041;-76
2023/03/24 01:56:49;;;;;;;7.50;1.80;;;11.50;84.60;;;;;;5018667;28;20046;-76
2023/03/24 01:59:20;;;;;;;8.70;2.55;;;11.50;84.40;;;;;;5023555;28;20037;-75
2023/03/24 02:01:46;;;;;;;7.35;2.03;;;11.50;84.50;;;;;;5022059;28;20029;-75
2023/03/24 02:04:13;;;;;;;6.13;1.98;;;11.50;84.40;;;;;;5021171;28;20065;-76
2023/03/24 02:06:42;;;;;;;7.93;2.17;;;11.50;84.50;;;;;;5025671;28;20477;-75
2023/03/24 02:09:10;;;;;;;5.75;2.15;;;11.40;84.20;;;;;;5028557;28;20112;-77
2023/03/24 02:11:37;;;;;;;9.02;2.35;;;11.40;84.50;;;;;;5028413;28;20109;-75
2023/03/24 02:14:05;;;;;;;6.47;2.35;;;11.40;84.30;;;;;;5026996;28;20060;-76
2023/03/24 02:16:42;;;;;;;6.30;2.08;;;11.40;84.40;;;;;;5024077;28;20029;-75
2023/03/24 02:19:26;;;;;;;8.77;2.33;;;11.30;84.50;;;;;;5023689;28;20488;-76
2023/03/24 02:22:30;;;;;;;8.98;2.35;;;11.30;84.80;;;;;;5024310;28;20049;-76
2023/03/24 02:25:02;;;;;;;9.55;2.35;;;11.20;85.00;;;;;;5033538;28;20424;-75
2023/03/24 02:28:11;;;;;;;8.70;2.72;;;11.10;85.20;;;;;;5024218;28;20088;-74
2023/03/24 02:31:23;;;;;;;10.75;2.88;;;11.10;85.30;;;;;;4932847;28;20039;-75
2023/03/24 02:34:14;;;;;;;8.52;2.45;;;11.10;85.30;;;;;;5000583;28;20390;-76
2023/03/24 02:36:53;;;;;;;10.15;2.63;;;11.10;85.30;;;;;;5020031;28;20505;-75
2023/03/24 02:39:34;;;;;;;8.70;2.28;;;11.10;85.70;;;;;;5024137;28;20084;-76
2023/03/24 02:42:05;;;;;;;9.73;2.47;;;11.10;85.50;;;;;;5016796;28;20580;-77
2023/03/24 02:45:26;;;;;;;15.00;2.80;;;11.10;85.60;;;;;;5026822;28;20037;-75
2023/03/24 02:48:11;;;;;;;9.77;2.67;;;11.10;85.50;;;;;;4992298;28;20409;-75
2023/03/24 02:51:10;;;;;;;9.13;2.60;;;11.00;85.50;;;;;;5028215;28;20048;-74
2023/03/24 02:53:39;;;;;;;13.20;2.83;;;10.90;85.80;;;;;;5030285;28;20037;-76
2023/03/24 02:56:28;;;;;;;12.82;2.72;;;11.00;86.00;;;;;;5022548;28;20049;-75
2023/03/24 02:59:06;;;;;;;12.93;2.63;;;11.00;85.90;;;;;;5032885;28;20030;-77
2023/03/24 03:01:36;;;;;;;10.23;3.08;;;11.00;85.90;;;;;;5021224;28;20037;-75
2023/03/24 03:04:18;;;;;;;13.75;3.75;;;11.00;85.80;;;;;;5016917;28;20037;-76
2023/03/24 03:06:51;;;;;;;10.98;2.88;;;11.00;85.70;;;;;;5025810;28;20041;-76
2023/03/24 03:09:20;;;;;;;16.67;4.00;;;11.00;85.80;;;;;;5025472;28;20057;-76
2023/03/24 03:11:51;;;;;;;11.25;3.28;;;11.00;85.80;;;;;;5036030;28;20397;-75
2023/03/24 03:14:40;;;;;;;9.98;3.47;;;11.00;85.70;;;;;;5024263;28;20044;-75
2023/03/24 03:17:15;;;;;;;15.55;3.42;;;11.00;85.70;;;;;;5024908;28;20036;-75
2023/03/24 03:19:46;;;;;;;13.73;2.88;;;10.90;85.60;;;;;;5026800;28;20033;-75
2023/03/24 03:22:17;;;;;;;16.35;3.15;;;10.90;85.70;;;;;;5021650;28;20060;-74
2023/03/24 03:24:51;;;;;;;15.85;3.45;;;10.80;85.80;;;;;;5023496;28;20049;-75
2023/03/24 03:27:27;;;;;;;13.23;3.40;;;10.90;85.80;;;;;;5021997;28;20045;-76
2023/03/24 03:30:01;;;;;;;13.65;3.75;;;10.80;85.80;;;;;;5027336;28;20032;-77
2023/03/24 03:32:32;;;;;;;16.58;3.10;;;10.90;85.80;;;;;;5023755;28;20468;-76
2023/03/24 03:35:07;;;;;;;17.48;3.50;;;10.90;85.70;;;;;;5033707;28;20399;-75
2023/03/24 03:38:12;;;;;;;14.98;4.40;;;10.90;85.60;;;;;;5011047;28;20042;-75
2023/03/24 03:40:47;;;;;;;16.77;3.63;;;10.90;85.70;;;;;;5036848;28;20025;-75
2023/03/24 03:43:13;;;;;;;;;;;11.00;85.50;;;;;;5029183;28;20033;-75
2023/03/24 03:45:38;;;;;;;14.40;3.47;;;10.90;85.30;;;;;;5024306;28;19920;-75
2023/03/24 03:48:04;;;;;;;11.63;3.35;;;10.90;85.30;;;;;;5024903;28;20100;-76
2023/03/24 03:50:31;;;;;;;21.33;3.40;;;10.90;85.20;;;;;;5022424;28;20132;-77
2023/03/24 03:52:57;;;;;;;15.32;3.55;;;11.00;85.00;;;;;;5023398;28;20041;-77
2023/03/24 03:55:23;;;;;;;13.68;3.53;;;10.90;85.10;;;;;;5030149;28;20102;-76
2023/03/24 03:57:49;;;;;;;16.02;3.80;;;10.90;85.00;;;;;;5022694;28;20030;-76
2023/03/24 04:00:18;;;;;;;16.85;3.92;;;10.90;84.90;;;;;;5035033;28;20864;-76
2023/03/24 04:02:55;;;;;;;21.33;3.95;;;10.90;84.90;;;;;;5028279;28;20469;-75
2023/03/24 04:05:45;;;;;;;19.30;3.70;;;10.90;85.00;;;;;;5025952;28;20166;-75
2023/03/24 04:08:48;;;;;;;16.05;3.53;;;10.80;85.20;;;;;;5035062;28;20144;-76
2023/03/24 04:11:46;;;;;;;18.83;4.00;;;10.80;85.30;;;;;;5020938;28;20060;-75
2023/03/24 04:14:14;;;;;;;21.17;4.57;;;10.80;85.30;;;;;;5037317;28;20441;-76
2023/03/24 04:17:06;;;;;;;20.05;4.38;;;10.80;85.20;;;;;;5024667;28;20040;-77
2023/03/24 04:19:59;;;;;;;14.40;3.30;;;10.80;85.10;;;;;;5029264;28;20028;-75
2023/03/24 04:22:53;;;;;;;19.48;4.00;;;10.80;85.20;;;;;;5003359;28;20564;-77
2023/03/24 04:25:33;;;;;;;20.20;4.63;;;10.80;85.20;;;;;;5032987;28;20024;-76
2023/03/24 04:28:13;;;;;;;18.10;4.05;;;10.70;85.30;;;;;;5030629;28;20221;-76
2023/03/24 04:30:41;;;;;;;14.07;3.35;;;10.60;85.60;;;;;;5024075;28;20024;-75
2023/03/24 04:33:27;;;;;;;21.35;4.20;;;10.60;85.40;;;;;;5022277;28;20039;-76
2023/03/24 04:36:17;;;;;;;19.65;3.78;;;10.60;85.40;;;;;;5021963;28;20536;-75
2023/03/24 04:38:47;;;;;;;19.25;4.53;;;10.60;85.40;;;;;;5029255;28;20139;-77
2023/03/24 04:41:16;;;;;;;13.93;4.25;;;10.60;85.40;;;;;;5025929;28;21292;-75
2023/03/24 04:43:43;;;;;;;17.23;3.53;;;10.50;85.60;;;;;;5025451;28;20033;-75
2023/03/24 04:46:11;;;;;;;20.38;4.63;;;10.50;85.70;;;;;;5014529;28;20050;-74
2023/03/24 04:48:37;;;;;;;18.45;3.70;;;10.60;85.40;;;;;;5019823;28;20033;-74
2023/03/24 04:51:03;;;;;;;20.23;4.55;;;10.60;85.50;;;;;;5025288;28;20044;-74
2023/03/24 04:53:29;;;;;;;18.88;4.30;;;10.60;85.50;;;;;;5011686;28;20033;-75
2023/03/24 04:56:30;;;;;;;19.27;4.40;;;10.60;85.50;;;;;;5031702;28;20037;-75
2023/03/24 04:58:57;;;;;;;18.50;3.95;;;10.60;85.40;;;;;;5019772;28;20048;-74
2023/03/24 05:01:29;;;;;;;22.52;5.35;;;10.60;85.30;;;;;;5023588;28;20045;-74
2023/03/24 05:03:56;;;;;;;18.92;3.95;;;10.60;85.40;;;;;;5027252;28;20118;-77
2023/03/24 05:06:22;;;;;;;16.67;3.42;;;10.60;85.50;;;;;;5026712;28;20041;-74
2023/03/24 05:08:48;;;;;;;19.67;4.47;;;10.50;85.70;;;;;;5028996;28;20466;-75
2023/03/24 05:11:14;;;;;;;15.80;3.85;;;10.60;85.90;;;;;;5019871;28;20041;-77
2023/03/24 05:13:39;;;;;;;19.77;4.05;;;10.60;85.90;;;;;;5008650;28;20057;-76
2023/03/24 05:16:06;;;;;;;22.45;3.85;;;10.60;85.90;;;;;;5027002;28;20067;-75
2023/03/24 05:18:31;;;;;;;17.17;4.03;;;10.60;86.00;;;;;;5025202;28;20020;-76
2023/03/24 05:20:59;;;;;;;17.42;4.43;;;10.60;85.90;;;;;;5024984;28;20461;-76
2023/03/24 05:23:24;;;;;;;18.95;4.43;;;10.60;86.00;;;;;;5023554;28;20033;-77
2023/03/24 05:25:50;;;;;;;21.17;4.55;;;10.60;86.10;;;;;;5025861;28;20028;-75
2023/03/24 05:28:16;;;;;;;17.30;4.00;;;10.60;86.20;;;;;;5025472;28;20033;-76
2023/03/24 05:30:42;;;;;;;20.45;4.53;;;10.60;86.30;;;;;;5027405;28;20385;-78
2023/03/24 05:33:08;;;;;;;16.45;3.50;;;10.60;86.20;;;;;;5025383;28;20052;-75
2023/03/24 05:35:33;;;;;;;16.33;3.63;;;10.60;86.10;;;;;;5016969;28;20511;-76
2023/03/24 05:37:59;;;;;;;19.92;4.30;;;10.70;85.80;;;;;;5020291;28;20033;-75
2023/03/24 05:40:25;;;;;;;18.52;3.67;;;10.70;85.80;;;;;;5019589;28;20784;-75
2023/03/24 05:42:51;;;;;;;21.05;4.10;;;10.70;85.60;;;;;;5024073;28;20061;-76
2023/03/24 05:45:17;;;;;;;18.45;3.97;;;10.70;85.40;;;;;;5006105;28;20515;-76
2023/03/24 05:47:42;;;;;;;17.15;3.95;;;10.70;85.30;;;;;;5024773;28;20282;-75
2023/03/24 05:50:08;;;;;;;15.55;3.53;;;10.80;85.20;;;;;;5016376;28;20037;-75
2023/03/24 05:52:35;;;;;;;15.98;3.50;;;10.80;85.00;;;;;;5023854;28;20069;-75
2023/03/24 05:55:01;;;;;;;15.90;3.22;;;10.80;84.70;;;;;;5021139;28;20031;-75
2023/03/24 05:57:29;;;;;;;18.52;3.95;;;10.80;84.60;;;;;;5022838;28;20038;-74
2023/03/24 05:59:55;;;;;;;18.02;4.00;;;10.80;84.70;;;;;;5022795;28;20461;-75
2023/03/24 06:02:22;;;;;;;16.27;3.25;;;10.80;84.50;;;;;;5023555;28;20094;-74
2023/03/24 06:04:47;;;;;;;16.60;3.60;;;10.80;84.10;;;;;;5005056;28;20613;-74
2023/03/24 06:07:14;;;;;;;16.15;4.10;;;10.90;84.00;;;;;;5024381;28;20068;-74
2023/03/24 06:09:45;;;;;;;14.30;3.20;;;10.90;84.00;;;;;;5022121;28;20018;-75
2023/03/24 06:12:12;;;;;;;17.83;3.47;;;10.90;84.00;;;;;;5021050;28;20602;-76
2023/03/24 06:14:39;;;;;;;19.40;3.88;;;10.90;83.90;;;;;;5019951;28;20127;-75
2023/03/24 06:17:07;;;;;;;15.55;3.42;;;10.90;83.80;;;;;;5020370;28;20030;-75
2023/03/24 06:19:33;;;;;;;17.35;4.10;;;11.00;83.60;;;;;;5024934;28;20132;-75
2023/03/24 06:22:01;;;;;;;15.75;3.90;;;11.00;83.60;;;;;;5008906;28;20603;-73
2023/03/24 06:24:27;;;;;;;18.63;4.25;;;11.00;83.80;;;;;;5028709;28;20083;-73
2023/03/24 06:27:00;;;;;;;18.58;4.38;;;11.00;83.60;;;;;;5028997;28;20069;-74
2023/03/24 06:29:28;;;;;;;17.73;3.58;;;11.00;83.60;;;;;;5029688;28;20017;-74
2023/03/24 06:31:54;;;;;;;20.08;4.20;;;11.10;83.50;;;;;;5026574;28;20025;-74
2023/03/24 06:34:21;;;;;;;17.88;3.60;;;11.10;83.20;;;;;;5024537;28;20033;-76
2023/03/24 06:36:47;;;;;;;15.13;3.75;;;11.10;83.10;;;;;;5027347;28;20108;-75
2023/03/24 06:39:13;;;;;;;19.25;4.10;;;11.10;83.20;;;;;;5025006;28;20071;-74
2023/03/24 06:41:38;;;;;;;16.58;5.07;;;11.10;83.20;;;;;;5027147;28;20108;-75
2023/03/24 06:44:04;;;;;;;18.58;3.50;;;11.10;83.20;;;;;;5024988;28;20523;-75
2023/03/24 06:46:30;;;;;;;15.98;4.00;;;11.10;83.10;;;;;;5026085;28;20053;-75
2023/03/24 06:48:56;;;;;;;16.80;3.75;;;11.10;83.00;;;;;;5025623;28;20091;-74
2023/03/24 06:51:21;;;;;;;20.73;3.90;;;11.10;82.80;;;;;;5026255;28;20061;-75
2023/03/24 06:53:47;;;;;;;15.00;3.40;;;11.20;82.90;;;;;;5025792;28;20107;-75
2023/03/24 06:56:18;;;;;;;12.52;3.03;;;11.20;82.90;;;;;;5022166;28;20329;-75
2023/03/24 06:58:44;;;;;;;17.50;4.00;;;11.20;82.60;;;;;;5040369;28;20068;-74
2023/03/24 07:01:10;;;;;;;18.17;3.67;;;11.30;82.50;;;;;;5024960;28;20047;-76
2023/03/24 07:03:37;;;;;;;23.05;5.35;;;11.40;82.40;;;;;;5022156;28;20036;-75
2023/03/24 07:06:03;;;;;;;12.25;3.38;;;11.50;82.40;;;;;;5027274;28;20088;-75
2023/03/24 07:08:29;;;;;;;17.38;5.07;;;11.50;82.30;;;;;;5028891;28;20128;-76
2023/03/24 07:10:55;;;;;;;16.65;3.67;;;11.50;82.40;;;;;;5019024;28;20597;-76
2023/03/24 07:13:21;;;;;;;14.80;3.60;;;11.50;82.60;;;;;;5025131;28;20044;-76
2023/03/24 07:15:47;;;;;;;14.75;3.25;;;11.50;82.70;;;;;;5025921;28;20038;-76
2023/03/24 07:18:13;;;;;;;17.70;3.95;;;11.50;82.60;;;;;;5026204;28;20034;-76
2023/03/24 07:20:39;;;;;;;19.23;3.90;;;11.50;82.40;;;;;;5024420;28;20030;-76
2023/03/24 07:23:05;;;;;;;17.15;4.05;;;11.50;82.20;;;;;;5029222;28;20033;-75
2023/03/24 07:25:31;;;;;;;15.65;3.70;;;11.60;82.30;;;;;;5028069;28;20029;-76
2023/03/24 07:27:57;;;;;;;17.10;3.92;;;11.80;81.30;;;;;;5026729;28;20030;-75
2023/03/24 07:30:23;;;;;;;16.48;3.55;;;12.00;80.90;;;;;;5040208;28;20328;-74
2023/03/24 07:32:49;;;;;;;13.75;3.40;;;12.00;80.70;;;;;;5024896;28;20037;-75
2023/03/24 07:35:16;;;;;;;14.75;3.47;;;12.10;80.60;;;;;;5022535;28;20025;-76
2023/03/24 07:37:43;;;;;;;9.82;2.72;;;12.10;80.30;;;;;;5022984;28;20076;-76
2023/03/24 07:40:13;;;;;;;15.40;4.45;;;12.10;79.80;;;;;;5026818;28;20112;-77
2023/03/24 07:42:40;;;;;;;14.70;4.28;;;12.10;79.50;;;;;;5016411;28;20369;-77
2023/03/24 07:45:10;;;;;;;20.00;3.70;;;12.20;79.10;;;;;;5015510;28;20037;-77
2023/03/24 07:47:37;;;;;;;16.48;3.80;;;12.30;78.90;;;;;;5017310;28;20045;-74
2023/03/24 07:50:09;;;;;;;14.75;3.63;;;12.40;78.60;;;;;;5020632;28;20026;-77
2023/03/24 07:52:47;;;;;;;18.83;3.63;;;12.30;78.30;;;;;;5018381;28;20030;-77
2023/03/24 07:55:14;;;;;;;13.63;3.40;;;12.30;78.20;;;;;;5036789;28;20060;-76
2023/03/24 07:57:42;;;;;;;16.00;3.92;;;12.30;78.20;;;;;;5024450;28;20033;-75
2023/03/24 08:00:16;;;;;;;13.73;2.88;;;12.30;78.60;;;;;;5025486;28;20513;-74
2023/03/24 08:02:48;;;;;;;14.00;3.55;;;12.40;78.00;;;;;;5023510;28;20045;-73
2023/03/24 08:05:14;;;;;;;13.60;3.10;;;12.50;77.80;;;;;;5024167;28;20052;-74
2023/03/24 08:07:41;;;;;;;17.77;3.65;;;12.60;77.70;;;;;;5022162;28;20025;-73
2023/03/24 08:10:09;;;;;;;16.27;3.47;;;12.50;77.50;;;;;;5024030;28;20060;-73
2023/03/24 08:12:35;;;;;;;16.50;3.10;;;12.60;77.40;;;;;;5028624;28;20037;-73
2023/03/24 08:15:01;;;;;;;14.82;3.42;;;12.60;77.90;;;;;;5024779;28;20029;-73
2023/03/24 08:17:26;;;;;;;15.32;3.35;;;12.60;77.30;;;;;;5022731;28;20021;-73
2023/03/24 08:19:52;;;;;;;16.35;4.03;;;12.70;77.20;;;;;;5024829;28;20382;-73
2023/03/24 08:22:18;;;;;;;16.33;4.55;;;12.80;77.10;;;;;;5025297;28;20056;-73
2023/03/24 08:24:43;;;;;;;14.10;3.92;;;13.00;77.20;;;;;;5022606;28;20707;-73
2023/03/24 08:27:09;;;;;;;16.70;3.60;;;13.00;77.10;;;;;;5025109;28;20702;-74
2023/03/24 08:29:35;;;;;;;13.05;3.17;;;13.10;76.70;;;;;;5037562;28;20030;-74
2023/03/24 08:32:01;;;;;;;17.50;3.60;;;13.10;76.00;;;;;;5021271;28;20046;-74
2023/03/24 08:34:27;;;;;;;15.25;3.63;;;13.10;76.30;;;;;;5023424;28;20052;-74
2023/03/24 08:36:53;;;;;;;12.18;3.58;;;13.20;76.00;;;;;;5019526;28;20409;-72
2023/03/24 08:39:19;;;;;;;14.52;3.47;;;13.40;75.60;;;;;;5025512;28;20083;-73
2023/03/24 08:41:45;;;;;;;14.82;3.33;;;13.40;75.40;;;;;;5021142;28;20038;-72
2023/03/24 08:44:11;;;;;;;13.63;3.85;;;13.50;75.60;;;;;;5021642;28;20029;-73
2023/03/24 08:46:38;;;;;;;13.85;3.17;;;13.70;75.30;;;;;;5021549;28;20128;-72
2023/03/24 08:49:05;;;;;;;15.18;3.47;;;14.10;74.60;;;;;;5025186;28;20083;-73
2023/03/24 08:51:31;;;;;;;18.38;3.60;;;14.40;72.90;;;;;;5020223;28;20088;-73
2023/03/24 08:53:57;;;;;;;13.93;3.28;;;14.20;71.80;;;;;;5021212;28;20597;-73
2023/03/24 08:56:24;;;;;;;15.00;3.78;;;14.10;72.10;;;;;;5017929;28;20255;-72
2023/03/24 08:58:52;;;;;;;18.80;4.10;;;13.90;72.70;;;;;;5020680;28;20025;-73
2023/03/24 09:01:20;;;;;;;12.77;3.20;;;13.90;72.90;;;;;;5020259;28;20029;-73
2023/03/24 09:03:46;;;;;;;11.48;3.25;;;13.90;72.40;;;;;;5019476;28;20044;-73
2023/03/24 09:06:13;;;;;;;14.07;3.40;;;13.70;72.70;;;;;;5034093;28;20045;-73
2023/03/24 09:08:39;;;;;;;17.05;3.70;;;13.70;73.00;;;;;;5023680;28;20271;-73
2023/03/24 09:11:06;;;;;;;16.55;3.58;;;13.90;73.00;;;;;;5019053;28;20037;-73
2023/03/24 09:13:32;;;;;;;15.75;3.08;;;14.10;72.20;;;;;;5025866;28;20077;-73
2023/03/24 09:16:01;;;;;;;13.45;3.28;;;14.10;72.00;;;;;;5021453;28;20037;-72
2023/03/24 09:18:27;;;;;;;15.35;3.45;;;14.10;72.50;;;;;;5022341;28;20393;-73
2023/03/24 09:20:53;;;;;;;13.90;3.42;;;14.00;73.00;;;;;;5020342;28;20033;-73
2023/03/24 09:23:20;;;;;;;15.00;3.42;;;13.90;73.20;;;;;;5023848;28;20110;-73
2023/03/24 09:25:51;;;;;;;14.38;3.42;;;13.80;73.00;;;;;;5016425;28;20040;-73
2023/03/24 09:28:17;;;;;;;15.73;3.35;;;13.70;73.50;;;;;;5019526;28;20029;-73
2023/03/24 09:30:43;;;;;;;14.52;3.28;;;13.40;74.20;;;;;;5019884;28;20099;-73
2023/03/24 09:33:10;;;;;;;16.02;3.50;;;13.30;75.50;;;;;;5022336;28;20025;-72
2023/03/24 09:35:36;;;;;;;15.18;3.70;;;13.10;75.60;;;;;;5023263;28;20041;-72
2023/03/24 09:38:02;;;;;;;11.82;3.15;;;13.10;76.00;;;;;;5028873;28;20095;-72
2023/03/24 09:40:31;;;;;;;10.77;2.08;;;12.90;76.40;;;;;;5027716;28;20017;-72
2023/03/24 09:43:33;;;;;;;8.00;2.33;;;12.10;78.90;;;;;;5026724;28;20057;-73
2023/03/24 09:46:02;;;;;;;8.95;1.80;;;11.50;81.40;;;;;;5018537;28;20555;-71
2023/03/24 09:48:34;;;;;;;6.82;1.60;;;11.30;82.20;;;;;;5027718;28;20111;-73
2023/03/24 09:51:03;;;;;;;9.43;1.73;;;11.20;83.30;;;;;;5026247;28;20164;-74
2023/03/24 09:53:42;;;;;;;12.30;2.65;;;11.20;83.70;;;;;;5028187;28;20480;-73
2023/03/24 09:56:16;;;;;;;11.43;2.97;;;11.20;84.30;;;;;;5022891;28;20862;-73
2023/03/24 09:58:44;;;;;;;10.45;2.92;;;11.40;85.80;;;;;;5033104;28;20036;-74
2023/03/24 10:01:14;;;;;;;14.18;3.88;;;11.70;86.30;;;;;;5030667;28;20198;-74
2023/03/24 10:03:40;;;;;;;14.55;3.85;;;12.00;86.60;;;;;;5034468;28;20025;-73
2023/03/24 10:06:14;;;;;;;12.38;3.35;;;12.40;86.70;;;;;;5029465;28;20029;-73
2023/03/24 10:08:48;;;;;;;12.00;3.40;;;12.70;85.70;;;;;;5029572;28;20029;-74
2023/03/24 10:11:43;;;;;;;13.07;3.25;;;12.60;85.60;;;;;;5031722;28;20521;-75
2023/03/24 10:14:27;;;;;;;16.03;3.73;;;12.10;85.60;;;;;;5028872;28;20045;-76
2023/03/24 10:17:10;;;;;;;16.38;4.57;;;12.10;86.20;;;;;;5025994;28;20057;-76
2023/03/24 10:20:14;;;;;;;16.08;4.07;;;11.90;86.40;;;;;;5030505;28;20026;-75
2023/03/24 10:23:03;;;;;;;15.52;4.28;;;11.90;86.30;;;;;;5023415;28;20039;-75
2023/03/24 10:25:50;;;;;;;12.85;3.35;;;11.90;86.20;;;;;;5032295;28;20053;-75
2023/03/24 10:28:22;;;;;;;14.40;3.90;;;11.90;85.60;;;;;;5014644;28;20048;-76
2023/03/24 10:30:50;;;;;;;18.08;4.47;;;12.10;85.30;;;;;;5029543;28;20021;-74
2023/03/24 10:33:16;;;;;;;12.57;4.10;;;12.20;85.00;;;;;;5032249;28;20034;-78
2023/03/24 10:36:07;;;;;;;13.57;3.88;;;12.60;85.40;;;;;;5026974;28;20486;-73
2023/03/24 10:38:32;;;;;;;15.23;3.80;;;12.90;83.50;;;;;;5024269;28;20032;-74
2023/03/24 10:40:59;;;;;;;14.32;2.88;;;13.30;83.30;;;;;;5024022;28;20025;-76
2023/03/24 10:43:26;;;;;;;15.23;3.50;;;13.30;80.80;;;;;;5026321;28;20496;-74
2023/03/24 10:45:55;;;;;;;13.05;3.42;;;13.10;79.20;;;;;;5023855;28;20030;-73
2023/03/24 10:49:13;;;;;;;10.68;2.53;;;13.10;79.90;;;;;;5031199;28;20079;-74
2023/03/24 10:51:55;;;;;;;15.38;3.13;;;13.40;80.20;;;;;;5001685;28;20025;-73
2023/03/24 10:54:29;;;;;;;12.45;2.85;;;13.60;79.60;;;;;;5012414;28;20432;-73
2023/03/24 10:56:58;;;;;;;16.23;3.88;;;14.00;78.60;;;;;;5034947;28;20029;-74
2023/03/24 10:59:31;;;;;;;14.60;2.80;;;14.00;78.20;;;;;;5027247;28;20116;-73
2023/03/24 11:02:09;;;;;;;9.93;2.33;;;14.00;78.50;;;;;;5026034;28;20109;-74
2023/03/24 11:04:40;;;;;;;12.32;3.30;;;14.10;77.80;;;;;;5027950;28;20037;-73
2023/03/24 11:07:19;;;;;;;13.30;3.28;;;14.40;77.10;;;;;;5027876;28;20037;-74
2023/03/24 11:10:06;;;;;;;15.18;4.05;;;14.50;76.40;;;;;;5019916;28;20112;-73
2023/03/24 11:12:35;;;;;;;16.15;4.00;;;14.50;75.70;;;;;;5023178;28;20044;-73
2023/03/24 11:15:27;;;;;;;15.43;4.20;;;14.30;75.70;;;;;;5023023;28;20036;-74
2023/03/24 11:18:13;;;;;;;11.65;3.50;;;14.40;76.30;;;;;;5019974;28;20488;-73
2023/03/24 11:20:46;;;;;;;15.77;3.50;;;14.30;76.70;;;;;;5024837;28;20044;-73
2023/03/24 11:23:30;;;;;;;13.02;3.53;;;14.10;77.60;;;;;;5027357;28;20032;-73
2023/03/24 11:26:11;;;;;;;14.05;3.00;;;13.80;79.10;;;;;;5026988;28;20038;-74
2023/03/24 11:28:44;;;;;;;12.40;3.40;;;13.70;80.60;;;;;;5015888;28;20432;-75
2023/03/24 11:31:17;;;;;;;14.82;3.42;;;13.50;80.70;;;;;;5015377;28;20057;-74
2023/03/24 11:34:15;;;;;;;13.25;3.10;;;13.60;82.30;;;;;;5015958;28;20421;-74
2023/03/24 11:37:10;;;;;;;13.15;3.65;;;13.80;80.80;;;;;;5011725;28;20044;-78
2023/03/24 11:39:36;;;;;;;14.63;3.95;;;14.20;82.20;;;;;;5013517;28;20042;-74
2023/03/24 11:42:15;;;;;;;17.73;3.42;;;14.50;79.00;;;;;;5012055;28;20507;-74
2023/03/24 11:44:45;;;;;;;16.75;3.60;;;14.60;77.60;;;;;;5027545;28;20026;-74
2023/03/24 11:47:13;;;;;;;15.23;3.40;;;14.90;77.40;;;;;;5013877;28;20434;-74
2023/03/24 11:49:53;;;;;;;12.93;2.80;;;15.20;76.80;;;;;;5019328;28;20026;-74
2023/03/24 11:52:28;;;;;;;13.30;3.42;;;15.40;74.80;;;;;;5017416;28;20144;-75
2023/03/24 11:54:54;;;;;;;14.13;3.47;;;15.60;74.90;;;;;;5015257;28;20029;-75
2023/03/24 11:57:45;;;;;;;11.95;2.72;;;15.90;74.10;;;;;;5016532;28;20096;-74
2023/03/24 12:00:32;;;;;;;11.82;2.85;;;15.90;72.40;;;;;;5013116;28;20026;-75
2023/03/24 12:03:19;;;;;;;11.07;2.90;;;16.10;70.70;;;;;;5027386;28;20091;-75
2023/03/24 12:06:12;;;;;;;13.48;2.78;;;16.20;68.20;;;;;;5013936;28;20064;-75
2023/03/24 12:08:43;;;;;;;11.55;2.40;;;15.90;68.70;;;;;;5018912;28;20052;-74
2023/03/24 12:11:37;;;;;;;11.23;3.30;;;15.30;70.60;;;;;;5026602;28;20701;-75
2023/03/24 12:14:04;;;;;;;12.10;2.70;;;14.60;71.90;;;;;;5028071;28;20048;-74
2023/03/24 12:17:02;;;;;;;12.93;2.80;;;14.00;75.30;;;;;;5021450;28;20042;-74
2023/03/24 12:19:30;;;;;;;11.07;2.42;;;13.70;76.10;;;;;;5023483;28;20017;-74
2023/03/24 12:22:18;;;;;;;11.15;2.67;;;13.40;77.70;;;;;;5013044;28;20083;-74
2023/03/24 12:24:53;;;;;;;9.77;2.35;;;13.60;79.00;;;;;;5024903;28;20061;-74
2023/03/24 12:27:38;;;;;;;11.40;3.17;;;14.10;80.20;;;;;;5021226;28;20099;-76
2023/03/24 12:30:29;;;;;;;17.20;3.42;;;14.60;80.40;;;;;;5024877;28;20852;-75
2023/03/24 12:33:20;;;;;;;13.75;3.40;;;15.00;77.20;;;;;;5026763;28;20060;-75
2023/03/24 12:36:21;;;;;;;9.48;2.30;;;15.10;77.20;;;;;;5020632;28;20060;-75
2023/03/24 12:39:11;;;;;;;13.90;2.88;;;14.90;73.80;;;;;;5032623;28;20025;-75
2023/03/24 12:41:45;;;;;;;9.70;2.28;;;14.80;73.90;;;;;;5025982;28;20196;-76
2023/03/24 12:44:42;;;;;;;10.05;2.22;;;14.70;72.90;;;;;;5014721;28;20049;-76
2023/03/24 12:47:07;;;;;;;14.00;2.63;;;15.10;73.30;;;;;;5035777;28;20061;-76
2023/03/24 12:49:40;;;;;;;8.55;2.20;;;15.50;72.30;;;;;;5026230;28;20091;-75
2023/03/24 12:53:06;;;;;;;10.68;2.67;;;15.70;71.30;;;;;;5024082;28;20033;-75
2023/03/24 12:55:56;;;;;;;13.03;2.20;;;15.80;67.30;;;;;;5006547;28;20045;-76
2023/03/24 12:58:48;;;;;;;15.60;2.17;;;15.90;67.00;;;;;;5025235;28;20674;-76
2023/03/24 13:01:31;;;;;;;11.43;2.70;;;15.80;64.20;;;;;;5021337;28;20234;-76
2023/03/24 13:04:06;;;;;;;11.30;2.17;;;15.50;66.20;;;;;;5030365;28;20512;-74
2023/03/24 13:06:35;;;;;;;;;;;15.40;64.20;;;;;;5020735;28;20099;-74
2023/03/24 13:09:19;;;;;;;9.30;2.10;;;15.40;64.00;;;;;;5020407;28;19919;-76
2023/03/24 13:12:09;;;;;;;8.73;2.20;;;15.60;66.50;;;;;;5019691;28;20041;-73